Pagrindinis puslapis
METAR-TAF:

METAR-TAF

Oro uostai :

Ljungbyhed, Švedija

platuma: 56-04N, ilguma: 013-12E, Aukštis: 43 m

Dabartinis oras

Ataskaita buvo paskelbta 26 minutes, ne 20:50 UTC
Vėjas 7 kt iš Rytų/Pietryčių
Temperatūra 18°C
Drėgmė 77%
Slėgis 1015 hPa
Matomumas 10 km arba daugiau

METAR: ESTL 172050Z AUTO 11007KT 9999 NCD 18/14 Q1015

Laikas: 23:16 (21:16 UTC)

Prognozė

Ataskaita buvo paskelbta 10 valandos ir 7 minutes, ne 11:09 UTC
Prognozė galioja nuo 17 metu 12 UTC su 17 metu 15 UTC
Vėjas 8 kt iš Pietryčių
Matomumas 10 km arba daugiau
nėra debesų žemiau 1500 m ir nėra kamuolinių lietaus debesų

TAF: ESTL 171109Z 1712/1715 14008KT CAVOK

Orai ataskaitas ir orų prognozės (METAR, TAF).

turimą stotys yra geltonos ir raudonos taškus žemėlapyje.

Perkelti pele per norėdami pamatyti stoties vardą.

Tada spustelėkite, norėdami matyti oro stebėjimo ir prognozės.

Norėdami pakeisti žemėlapį: spustelėkite ant žalios mygtukų su juodo kryžiaus žemyn,; žalią mygtuką su brūkšneliu, jei norite nutolinti; arba žalių rodyklių gretimoms žemėlapius.


METAR-TAF: